Time;durP1;ratioP1;P1;durP2;ratioP2;P2;SDS_P1;SDS_P2;PMS_P1;PMS_P2;Temp;Humidity;BMP_temperature;BMP_pressure;BME280_temperature;BME280_humidity;BME280_pressure;Samples;Min_cycle;Max_cycle;Signal;HPM_P1;HPM_P2
2022/04/03 00:01:27;;;;;;;4.47;3.33;;;;;;;6.02;48.94;97896.41;8349263;28;20399;-68
2022/04/03 00:05:30;;;;;;;5.73;3.37;;;;;;;5.96;49.02;97893.97;8346771;28;20295;-67
2022/04/03 00:09:33;;;;;;;6.90;3.17;;;;;;;6.03;48.46;97895.50;8346501;28;20407;-68
2022/04/03 00:13:36;;;;;;;3.47;3.00;;;;;;;6.01;48.56;97894.69;8346539;28;20498;-68
2022/04/03 00:17:41;;;;;;;5.37;3.37;;;;;;;5.92;48.50;97898.34;8346468;28;20236;-66
2022/04/03 00:21:43;;;;;;;5.17;3.40;;;;;;;5.91;48.61;97900.94;8346451;28;20234;-66
2022/04/03 00:25:46;;;;;;;7.20;3.40;;;;;;;5.86;48.43;97901.06;8346207;28;20228;-66
2022/04/03 00:29:49;;;;;;;4.73;3.47;;;;;;;5.79;48.52;97902.97;8352041;28;20235;-66
2022/04/03 00:33:53;;;;;;;6.07;3.67;;;;;;;5.77;48.67;97907.28;8351835;28;20232;-66
2022/04/03 00:37:56;;;;;;;3.50;3.10;;;;;;;5.70;48.61;97902.34;8351900;28;20224;-66
2022/04/03 00:41:59;;;;;;;4.03;3.10;;;;;;;5.78;48.71;97905.56;8351625;28;20437;-66
2022/04/03 00:46:03;;;;;;;5.07;3.33;;;;;;;5.75;48.41;97905.63;8351877;28;20235;-66
2022/04/03 00:50:10;;;;;;;5.37;3.37;;;;;;;5.72;48.78;97900.59;8351821;28;20258;-66
2022/04/03 00:54:13;;;;;;;3.67;3.37;;;;;;;5.72;48.55;97906.56;8351155;28;20235;-66
2022/04/03 00:58:16;;;;;;;5.03;3.43;;;;;;;5.56;48.58;97894.97;8351373;28;20429;-67
2022/04/03 01:02:20;;;;;;;6.77;3.50;;;;;;;5.66;48.47;97902.41;8366207;28;20298;-66
2022/04/03 01:06:24;;;;;;;4.00;3.27;;;;;;;5.65;48.34;97898.19;8384258;28;20242;-67
2022/04/03 01:10:28;;;;;;;5.50;3.60;;;;;;;5.77;48.11;97902.16;8383964;28;20529;-66
2022/04/03 01:14:31;;;;;;;3.77;3.37;;;;;;;5.55;48.69;97906.16;8383993;28;20382;-66
2022/04/03 01:18:34;;;;;;;6.97;3.80;;;;;;;5.61;48.64;97906.00;8383960;28;20235;-66
2022/04/03 01:22:39;;;;;;;4.07;3.20;;;;;;;5.56;48.63;97915.53;8383809;28;20231;-67
2022/04/03 01:26:43;;;;;;;6.77;3.80;;;;;;;5.63;48.59;97906.78;8383534;28;20227;-66
2022/04/03 01:30:46;;;;;;;4.63;3.80;;;;;;;5.60;48.77;97907.72;8383395;28;20227;-66
2022/04/03 01:34:49;;;;;;;5.23;3.67;;;;;;;5.56;49.11;97916.41;8383294;28;20431;-66
2022/04/03 01:38:51;;;;;;;4.43;3.60;;;;;;;5.66;49.06;97920.41;8382957;28;20239;-66
2022/04/03 01:42:56;;;;;;;6.00;3.70;;;;;;;5.53;49.15;97916.47;8383483;28;20246;-66
2022/04/03 01:46:59;;;;;;;5.40;3.70;;;;;;;5.57;49.47;97917.22;8385285;28;20203;-66
2022/04/03 01:51:01;;;;;;;4.90;3.70;;;;;;;5.49;49.45;97912.28;8385049;28;20207;-66
2022/04/03 01:55:06;;;;;;;4.33;3.33;;;;;;;5.50;49.65;97921.66;8384784;28;20196;-66
2022/04/03 01:59:11;;;;;;;5.47;3.60;;;;;;;5.49;49.47;97914.84;8384567;28;20236;-66
2022/04/03 02:03:13;;;;;;;5.30;3.60;;;;;;;5.45;49.72;97915.81;8384590;28;20521;-66
2022/04/03 02:07:17;;;;;;;4.97;3.80;;;;;;;5.43;49.58;97920.97;8382859;28;20239;-66
2022/04/03 02:11:20;;;;;;;6.27;4.20;;;;;;;5.49;49.61;97918.25;8382387;28;20235;-66
2022/04/03 02:15:24;;;;;;;4.47;3.50;;;;;;;5.53;49.29;97918.19;8382115;28;20240;-66
2022/04/03 02:19:27;;;;;;;5.57;3.53;;;;;;;5.41;49.49;97927.88;8382023;28;20235;-66
2022/04/03 02:23:30;;;;;;;5.97;3.93;;;;;;;5.46;49.36;97926.06;8382109;28;20238;-66
2022/04/03 02:27:33;;;;;;;4.50;3.57;;;;;;;5.31;49.27;97920.44;8381611;28;20238;-66
2022/04/03 02:31:37;;;;;;;5.23;3.40;;;;;;;5.45;49.14;97918.38;8381512;28;20231;-66
2022/04/03 02:35:40;;;;;;;4.37;2.97;;;;;;;5.37;48.90;97930.53;8381229;28;20235;-67
2022/04/03 02:39:45;;;;;;;3.60;3.17;;;;;;;5.27;48.98;97935.94;8381036;28;20232;-66
2022/04/03 02:43:48;;;;;;;4.23;2.87;;;;;;;5.17;49.17;97936.16;8380795;28;20239;-66
2022/04/03 02:47:54;;;;;;;4.90;3.23;;;;;;;5.25;49.17;97934.25;8380937;28;20231;-66
2022/04/03 02:51:57;;;;;;;4.33;3.00;;;;;;;5.06;48.96;97941.53;8380191;28;20243;-66
2022/04/03 02:56:00;;;;;;;3.57;2.80;;;;;;;5.09;48.88;97934.59;8381078;28;20235;-66
2022/04/03 03:00:03;;;;;;;4.57;2.80;;;;;;;5.28;48.46;97941.91;8380948;28;20238;-66
2022/04/03 03:04:07;;;;;;;5.37;3.03;;;;;;;5.04;48.51;97936.44;8380516;28;20258;-66
2022/04/03 03:08:10;;;;;;;4.77;3.10;;;;;;;5.11;48.57;97947.41;8379951;28;20227;-67
2022/04/03 03:12:13;;;;;;;3.87;2.87;;;;;;;5.14;48.75;97954.19;8380499;28;20242;-66
2022/04/03 03:16:16;;;;;;;4.83;2.80;;;;;;;5.01;48.92;97945.94;8380331;28;20239;-66
2022/04/03 03:20:32;;;;;;;5.13;2.83;;;;;;;5.06;48.11;97949.22;8380170;28;20511;-66
2022/04/03 03:24:35;;;;;;;5.10;2.90;;;;;;;4.78;48.85;97954.97;8380186;28;20232;-66
2022/04/03 03:28:38;;;;;;;3.70;2.90;;;;;;;4.97;48.24;97946.88;8380069;28;20231;-66
2022/04/03 03:32:41;;;;;;;3.93;2.80;;;;;;;5.03;47.72;97951.88;8380208;28;20290;-66
2022/04/03 03:36:45;;;;;;;7.10;3.00;;;;;;;5.05;47.64;97960.41;8380069;28;20237;-66
2022/04/03 03:40:48;;;;;;;3.50;3.07;;;;;;;4.81;47.89;97956.63;8380050;28;20453;-66
2022/04/03 03:44:51;;;;;;;4.57;2.50;;;;;;;4.91;47.86;97965.81;8380190;28;20231;-67
2022/04/03 03:48:54;;;;;;;5.77;2.83;;;;;;;4.96;47.72;97963.16;8379909;28;20235;-66
2022/04/03 03:52:59;;;;;;;4.50;2.87;;;;;;;4.84;47.74;97975.38;8379838;28;20238;-66
2022/04/03 03:57:03;;;;;;;3.50;2.70;;;;;;;4.82;47.76;97969.44;8380091;28;20231;-67
2022/04/03 04:01:06;;;;;;;4.20;2.60;;;;;;;4.89;47.97;97973.56;8381866;28;20231;-66
2022/04/03 04:05:09;;;;;;;5.30;2.90;;;;;;;4.85;47.39;97983.91;8385866;28;20226;-69
2022/04/03 04:09:14;;;;;;;5.50;3.10;;;;;;;4.68;48.24;97984.25;8386050;28;20227;-66
2022/04/03 04:13:17;;;;;;;3.70;2.80;;;;;;;4.77;48.10;97981.50;8385756;28;20238;-67
2022/04/03 04:17:19;;;;;;;5.60;3.00;;;;;;;4.76;47.97;97987.53;8385397;28;20242;-66
2022/04/03 04:21:25;;;;;;;4.83;2.73;;;;;;;4.75;47.99;97987.56;8385506;28;20266;-67
2022/04/03 04:25:31;;;;;;;4.37;2.80;;;;;;;4.71;47.90;97991.91;8385425;28;20231;-66
2022/04/03 04:29:34;;;;;;;6.10;2.90;;;;;;;4.76;48.06;97994.34;8385338;28;20498;-66
2022/04/03 04:33:40;;;;;;;3.40;2.83;;;;;;;4.66;47.97;97998.84;8385396;28;20550;-68
2022/04/03 04:37:43;;;;;;;3.67;3.00;;;;;;;4.66;47.86;98001.41;8385168;28;20239;-67
2022/04/03 04:41:47;;;;;;;4.20;2.70;;;;;;;4.53;48.08;98005.91;8384943;28;20235;-66
2022/04/03 04:45:50;;;;;;;3.20;2.60;;;;;;;4.52;48.28;98008.53;8385166;28;20232;-67
2022/04/03 04:49:53;;;;;;;4.00;2.60;;;;;;;4.48;48.03;98018.84;8385097;28;20234;-66
2022/04/03 04:53:56;;;;;;;4.33;2.60;;;;;;;4.53;47.98;98023.03;8385002;28;20227;-66
2022/04/03 04:58:01;;;;;;;3.83;2.73;;;;;;;4.48;48.01;98025.69;8384798;28;20247;-66
2022/04/03 05:02:05;;;;;;;4.90;3.03;;;;;;;4.34;48.25;98025.09;8384622;28;20259;-66
2022/04/03 05:06:09;;;;;;;7.23;2.53;;;;;;;4.55;47.74;98029.84;8384348;28;20227;-66
2022/04/03 05:10:14;;;;;;;3.53;2.90;;;;;;;4.60;47.46;98033.16;8383784;28;20232;-67
2022/04/03 05:14:18;;;;;;;3.87;2.70;;;;;;;4.57;47.83;98042.63;8383241;28;20299;-66
2022/04/03 05:18:21;;;;;;;5.23;3.50;;;;;;;4.36;48.32;98044.72;8384096;28;20254;-66
2022/04/03 05:22:25;;;;;;;7.77;5.10;;;;;;;4.53;47.66;98043.56;8384081;28;20232;-67
2022/04/03 05:26:28;;;;;;;3.27;2.90;;;;;;;4.46;48.32;98047.97;8383806;28;20684;-66
2022/04/03 05:30:33;;;;;;;7.50;4.47;;;;;;;4.66;47.51;98055.28;8383438;28;20326;-67
2022/04/03 05:34:36;;;;;;;5.67;3.03;;;;;;;4.67;47.01;98055.25;8383600;28;20421;-66
2022/04/03 05:38:39;;;;;;;4.17;2.97;;;;;;;4.83;46.76;98067.78;8383372;28;20238;-66
2022/04/03 05:42:42;;;;;;;3.53;2.73;;;;;;;4.94;46.69;98070.16;8382831;28;20231;-67
2022/04/03 05:46:46;;;;;;;4.20;2.80;;;;;;;5.48;45.36;98072.41;8392749;28;20231;-67
2022/04/03 05:50:50;;;;;;;3.23;2.63;;;;;;;5.81;44.86;98080.25;8397950;28;20296;-67
2022/04/03 05:54:53;;;;;;;5.40;2.80;;;;;;;6.15;43.72;98076.88;8398408;28;20222;-67
2022/04/03 05:58:56;;;;;;;5.30;2.60;;;;;;;6.44;43.21;98081.31;8398338;28;20297;-66
2022/04/03 06:03:03;;;;;;;3.33;2.40;;;;;;;6.42;42.79;98083.91;8396848;28;20293;-66
2022/04/03 06:07:07;;;;;;;3.20;2.63;;;;;;;6.53;42.57;98088.78;8396042;28;20226;-67
2022/04/03 06:11:11;;;;;;;4.03;2.70;;;;;;;6.72;42.09;98094.28;8398723;28;20223;-66
2022/04/03 06:15:15;;;;;;;7.70;3.10;;;;;;;6.68;42.65;98102.13;8397953;28;20230;-68
2022/04/03 06:19:20;;;;;;;4.63;2.73;;;;;;;6.91;41.98;98098.94;8397861;28;20262;-66
2022/04/03 06:23:23;;;;;;;6.97;2.53;;;;;;;6.96;41.38;98107.38;8395113;28;20226;-67
2022/04/03 06:27:27;;;;;;;4.30;2.80;;;;;;;6.52;41.88;98107.66;8395177;28;20422;-66
2022/04/03 06:31:30;;;;;;;4.20;2.67;;;;;;;6.85;41.97;98113.69;8397460;28;20419;-66
2022/04/03 06:35:34;;;;;;;4.07;2.70;;;;;;;6.67;41.25;98116.72;8397687;28;20241;-66
2022/04/03 06:39:42;;;;;;;4.87;3.10;;;;;;;6.95;41.27;98122.00;8397504;28;20643;-66
2022/04/03 06:43:46;;;;;;;8.00;2.90;;;;;;;7.27;40.57;98127.13;8394740;28;20233;-67
2022/04/03 06:47:49;;;;;;;6.80;2.43;;;;;;;7.46;40.17;98135.16;8397078;28;20231;-66
2022/04/03 06:51:53;;;;;;;5.67;2.90;;;;;;;7.54;39.68;98131.50;8394445;28;20238;-67
2022/04/03 06:55:57;;;;;;;5.13;3.00;;;;;;;7.61;39.13;98135.56;8398340;28;20231;-66
2022/04/03 07:00:00;;;;;;;4.27;3.00;;;;;;;7.55;38.16;98143.47;8414133;28;20230;-67
2022/04/03 07:04:04;;;;;;;5.87;2.63;;;;;;;7.66;38.62;98150.06;8384392;28;20231;-67
2022/04/03 07:08:08;;;;;;;6.87;2.90;;;;;;;7.70;38.62;98156.81;8380476;28;20231;-67
2022/04/03 07:12:11;;;;;;;4.37;2.80;;;;;;;8.03;38.08;98160.09;8379979;28;20227;-68
2022/04/03 07:16:14;;;;;;;3.70;2.53;;;;;;;8.16;38.12;98163.13;8397395;28;20238;-68
2022/04/03 07:20:17;;;;;;;5.80;2.70;;;;;;;7.83;37.73;98156.38;8413397;28;20237;-67
2022/04/03 07:24:22;;;;;;;5.33;2.73;;;;;;;8.22;37.29;98163.81;8413128;28;20234;-67
2022/04/03 07:28:25;;;;;;;5.90;2.90;;;;;;;7.92;37.17;98165.59;8413258;28;20541;-67
2022/04/03 07:32:28;;;;;;;4.93;3.00;;;;;;;8.26;37.11;98168.84;8413238;28;20245;-67
2022/04/03 07:36:30;;;;;;;5.17;2.80;;;;;;;8.00;36.81;98176.50;8406888;28;20235;-66
2022/04/03 07:40:35;;;;;;;1076.27;665.93;;;;;;;8.60;51.59;98189.28;8383772;28;20421;-67
2022/04/03 07:44:56;;;;;;;91.43;43.33;;;;;;;8.43;40.36;98188.97;8413116;28;20398;-66
2022/04/03 07:48:58;;;;;;;513.43;306.17;;;;;;;9.23;45.89;98194.03;8412841;28;20231;-65
2022/04/03 07:53:01;;;;;;;1999.90;791.40;;;;;;;9.73;40.59;98191.38;8411925;28;20223;-66
2022/04/03 07:57:07;;;;;;;227.80;104.23;;;;;;;9.56;35.73;98192.84;8412999;28;20236;-65
2022/04/03 08:01:10;;;;;;;301.17;151.30;;;;;;;10.11;36.34;98197.69;8406966;28;20250;-67
2022/04/03 08:05:13;;;;;;;167.03;87.83;;;;;;;10.62;35.17;98210.38;8379599;28;20231;-66
2022/04/03 08:09:16;;;;;;;465.27;253.67;;;;;;;10.98;39.18;98205.44;8379857;28;20400;-66
2022/04/03 08:13:21;;;;;;;97.13;53.80;;;;;;;10.01;33.53;98205.84;8381672;28;20235;-66
2022/04/03 08:17:25;;;;;;;546.43;342.23;;;;;;;11.00;38.36;98213.16;8412501;28;20420;-67
2022/04/03 08:21:28;;;;;;;26.67;16.43;;;;;;;11.46;31.83;98212.03;8412766;28;20559;-66
2022/04/03 08:25:31;;;;;;;21.83;12.03;;;;;;;11.12;30.08;98215.25;8412509;28;20226;-66
2022/04/03 08:29:35;;;;;;;104.33;62.23;;;;;;;11.39;31.87;98220.13;8412485;28;20243;-66
2022/04/03 08:33:38;;;;;;;46.13;27.63;;;;;;;11.99;32.33;98226.09;8412481;28;20556;-66
2022/04/03 08:37:41;;;;;;;27.03;17.47;;;;;;;12.23;30.05;98228.50;8406190;28;20230;-66
2022/04/03 08:41:48;;;;;;;14.77;8.90;;;;;;;11.88;30.26;98231.78;8412203;28;20250;-66
2022/04/03 08:45:54;;;;;;;5.97;3.00;;;;;;;12.65;28.91;98232.56;8412212;28;20226;-68
2022/04/03 08:50:01;;;;;;;6.60;3.57;;;;;;;12.64;28.37;98234.31;8416371;28;20230;-66
2022/04/03 08:54:05;;;;;;;5.33;3.30;;;;;;;11.70;28.84;98235.19;8417832;28;20556;-66
2022/04/03 08:58:08;;;;;;;40.53;23.17;;;;;;;12.36;33.21;98246.94;8417835;28;20567;-66
2022/04/03 09:02:15;;;;;;;6.00;3.30;;;;;;;12.65;27.63;98243.78;8403050;28;20229;-66
2022/04/03 09:06:19;;;;;;;15.90;7.83;;;;;;;13.43;28.59;98241.66;8384007;28;20231;-65
2022/04/03 09:10:21;;;;;;;3.40;2.30;;;;;;;13.39;27.93;98239.31;8415982;28;20234;-71
2022/04/03 09:14:24;;;;;;;60.60;34.50;;;;;;;15.60;40.13;98247.84;8385011;28;20437;-63
2022/04/03 09:18:47;;;;;;;15.30;9.43;;;;;;;15.92;30.59;98239.84;8383987;28;20232;-63
2022/04/03 09:22:52;;;;;;;3.87;2.67;;;;;;;16.01;27.74;98243.66;8383982;28;20227;-64
2022/04/03 09:27:00;;;;;;;5.50;2.90;;;;;;;16.06;26.68;98243.38;8383771;28;20240;-64
2022/04/03 09:31:03;;;;;;;6.97;3.40;;;;;;;14.75;26.93;98246.72;8383693;28;20542;-63
2022/04/03 09:35:08;;;;;;;4.03;2.37;;;;;;;15.13;26.91;98237.63;8383459;28;20228;-64
2022/04/03 09:39:14;;;;;;;2.47;1.50;;;;;;;15.69;27.09;98241.25;8382984;28;20223;-64
2022/04/03 09:43:19;;;;;;;3.57;1.83;;;;;;;15.50;25.53;98241.50;8383232;28;20257;-66
2022/04/03 09:47:26;;;;;;;2.70;1.70;;;;;;;14.78;24.95;98237.91;8383357;28;20235;-66
2022/04/03 09:51:31;;;;;;;3.67;1.87;;;;;;;13.73;25.02;98229.72;8383121;28;20246;-66
2022/04/03 09:55:42;;;;;;;3.13;2.00;;;;;;;13.77;25.18;98233.88;8383142;28;20538;-66
2022/04/03 09:59:48;;;;;;;2.03;1.63;;;;;;;13.05;25.56;98234.00;8382875;28;20228;-67
2022/04/03 10:03:52;;;;;;;3.67;2.47;;;;;;;11.62;26.51;98224.31;8382656;28;20234;-66
2022/04/03 10:07:57;;;;;;;2.00;1.50;;;;;;;13.23;25.15;98227.06;8392688;28;20238;-67
2022/04/03 10:12:00;;;;;;;4.70;1.90;;;;;;;13.05;25.03;98240.97;8390684;28;20230;-67
2022/04/03 10:16:04;;;;;;;2.27;1.80;;;;;;;12.96;25.80;98242.28;8399823;28;20326;-67
2022/04/03 10:20:09;;;;;;;2.70;1.83;;;;;;;14.13;24.78;98238.03;8395526;28;20231;-67
2022/04/03 10:24:15;;;;;;;3.87;1.80;;;;;;;14.09;24.78;98224.31;8381289;28;20224;-67
2022/04/03 10:28:20;;;;;;;2.63;1.20;;;;;;;14.14;22.06;98222.28;8381675;28;20242;-67
2022/04/03 10:32:24;;;;;;;2.57;1.70;;;;;;;14.12;24.89;98225.91;8381419;28;20242;-67
2022/04/03 10:36:29;;;;;;;5.90;1.70;;;;;;;13.20;26.43;98227.22;8381690;28;20411;-67
2022/04/03 10:40:35;;;;;;;3.37;1.67;;;;;;;12.59;26.12;98223.28;8381459;28;20570;-67
2022/04/03 10:44:39;;;;;;;1.80;1.30;;;;;;;12.46;25.66;98217.84;8381230;28;20234;-67
2022/04/03 10:48:42;;;;;;;2.63;1.47;;;;;;;13.03;23.51;98215.06;8381455;28;20223;-67
2022/04/03 10:52:57;;;;;;;2.03;1.60;;;;;;;13.52;25.62;98218.69;8381090;28;20232;-67
2022/04/03 10:57:43;;;;;;;1.67;1.40;;;;;;;13.86;25.69;98212.56;8381032;28;20227;-67
2022/04/03 11:01:46;;;;;;;2.70;1.93;;;;;;;14.00;24.69;98209.19;8380666;28;20227;-67
2022/04/03 11:05:51;;;;;;;2.80;1.40;;;;;;;12.91;25.39;98219.13;8380806;28;20234;-67
2022/04/03 11:09:57;;;;;;;2.40;1.77;;;;;;;12.32;27.12;98213.31;8374756;28;20232;-67
2022/04/03 11:14:01;;;;;;;1.97;1.40;;;;;;;12.22;25.09;98209.47;8413861;28;20230;-67
2022/04/03 11:18:26;;;;;;;2.77;1.37;;;;;;;13.05;23.78;98205.41;8413805;28;20230;-67
2022/04/03 11:22:29;;;;;;;1.90;1.60;;;;;;;12.80;23.84;98215.38;8398647;28;20239;-68
2022/04/03 11:26:35;;;;;;;2.63;1.30;;;;;;;12.22;25.88;98206.03;8393001;28;20222;-68
2022/04/03 11:30:40;;;;;;;2.30;1.63;;;;;;;11.40;24.83;98198.47;8396148;28;20226;-67
2022/04/03 11:34:44;;;;;;;3.03;2.60;;;;;;;11.44;25.30;98197.41;8396131;28;20230;-67
2022/04/03 11:38:48;;;;;;;2.43;1.77;;;;;;;11.94;23.99;98204.72;8406845;28;20324;-67
2022/04/03 11:43:07;;;;;;;2.80;1.57;;;;;;;13.09;22.09;98193.09;8412794;28;20245;-68
2022/04/03 11:47:19;;;;;;;2.67;1.63;;;;;;;13.82;23.23;98195.41;8393983;28;20227;-68
2022/04/03 11:51:23;;;;;;;1.93;1.57;;;;;;;13.87;23.25;98182.97;8395068;28;20247;-68
2022/04/03 11:55:37;;;;;;;2.03;1.60;;;;;;;12.52;23.57;98190.72;8395594;28;20230;-67
2022/04/03 11:59:40;;;;;;;1.50;1.40;;;;;;;12.76;22.87;98193.88;8384988;28;20239;-68
2022/04/03 12:03:45;;;;;;;2.07;1.40;;;;;;;13.32;21.26;98176.34;8391253;28;20423;-67
2022/04/03 12:07:49;;;;;;;2.03;1.23;;;;;;;13.55;22.70;98171.69;8384682;28;20254;-67
2022/04/03 12:11:53;;;;;;;2.83;1.50;;;;;;;13.78;22.67;98171.28;8379480;28;20231;-68
2022/04/03 12:15:57;;;;;;;1.30;1.10;;;;;;;13.83;21.65;98164.09;8379697;28;20257;-68
2022/04/03 12:20:02;;;;;;;1.70;1.30;;;;;;;14.68;20.77;98164.59;8379640;28;20561;-67
2022/04/03 12:24:07;;;;;;;4.00;1.43;;;;;;;14.38;21.21;98174.97;8383802;28;20254;-67
2022/04/03 12:28:13;;;;;;;1.77;1.40;;;;;;;13.76;21.81;98165.34;8383650;28;20219;-66
2022/04/03 12:32:19;;;;;;;2.60;1.40;;;;;;;14.18;23.04;98163.91;8383332;28;20442;-67
2022/04/03 12:36:23;;;;;;;3.03;1.80;;;;;;;13.78;22.65;98160.06;8385307;28;20227;-68
2022/04/03 12:40:27;;;;;;;4.63;1.70;;;;;;;12.91;23.94;98161.09;8384990;28;20429;-66
2022/04/03 12:44:30;;;;;;;2.40;1.80;;;;;;;12.46;23.86;98163.28;8385170;28;20411;-66
2022/04/03 12:48:34;;;;;;;3.03;2.10;;;;;;;12.76;23.60;98161.88;8385084;28;20412;-66
2022/04/03 12:52:39;;;;;;;1.83;1.20;;;;;;;11.56;23.65;98152.81;8384718;28;20239;-66
2022/04/03 13:01:16;;;;;;;2.87;1.50;;;;;;;11.28;25.55;98154.03;8384380;28;20533;-67
2022/04/03 13:05:19;;;;;;;2.07;1.50;;;;;;;10.68;25.72;98156.59;8384300;28;20235;-66
2022/04/03 13:09:23;;;;;;;2.10;1.40;;;;;;;10.85;25.71;98155.03;8384376;28;20489;-66
2022/04/03 13:13:27;;;;;;;1.80;1.40;;;;;;;12.77;24.21;98146.19;8384150;28;20240;-66
2022/04/03 13:17:31;;;;;;;2.20;1.40;;;;;;;13.38;22.38;98144.81;8384417;28;20238;-66
2022/04/03 13:21:35;;;;;;;2.13;1.57;;;;;;;13.82;21.16;98148.53;8383861;28;20230;-66
2022/04/03 13:25:39;;;;;;;2.30;1.63;;;;;;;13.73;21.28;98143.84;8383886;28;20238;-66
2022/04/03 13:29:42;;;;;;;5.73;1.57;;;;;;;12.79;21.58;98140.91;8384105;28;20231;-66
2022/04/03 13:33:45;;;;;;;1.77;1.40;;;;;;;12.65;22.35;98149.41;8382344;28;20232;-66
2022/04/03 13:37:48;;;;;;;3.20;2.00;;;;;;;13.23;20.79;98136.03;8383414;28;20227;-66
2022/04/03 13:41:55;;;;;;;4.53;1.37;;;;;;;13.16;22.34;98132.06;8382692;28;20235;-67
2022/04/03 13:46:00;;;;;;;2.57;1.50;;;;;;;13.34;23.53;98130.28;8382256;28;20378;-66
2022/04/03 13:50:04;;;;;;;3.10;1.70;;;;;;;12.87;22.55;98124.03;8383176;28;20234;-66
2022/04/03 13:54:08;;;;;;;2.87;1.60;;;;;;;11.72;22.87;98124.41;8382881;28;20232;-66
2022/04/03 13:58:12;;;;;;;1.60;1.30;;;;;;;11.72;23.40;98129.59;8382488;28;20223;-67
2022/04/03 14:02:16;;;;;;;2.67;1.60;;;;;;;11.42;23.68;98130.06;8394489;28;20236;-67
2022/04/03 14:06:19;;;;;;;4.43;1.40;;;;;;;11.28;26.34;98130.69;8404826;28;20230;-67
2022/04/03 14:10:22;;;;;;;3.27;2.10;;;;;;;11.51;26.35;98127.06;8415533;28;20249;-67
2022/04/03 14:14:26;;;;;;;1.77;1.50;;;;;;;11.20;25.54;98125.00;8413985;28;20222;-67
2022/04/03 14:18:30;;;;;;;2.20;1.60;;;;;;;11.48;25.28;98128.94;8398160;28;20238;-66
2022/04/03 14:22:35;;;;;;;1.87;1.67;;;;;;;11.13;24.99;98121.84;8398780;28;20231;-66
2022/04/03 14:26:38;;;;;;;1.87;1.60;;;;;;;10.60;25.82;98124.97;8398051;28;20231;-66
2022/04/03 14:30:42;;;;;;;2.60;1.53;;;;;;;10.68;26.92;98135.03;8396561;28;20233;-66
2022/04/03 14:34:51;;;;;;;2.17;1.53;;;;;;;10.72;26.22;98134.84;8392295;28;20230;-67
2022/04/03 14:38:54;;;;;;;4.13;1.47;;;;;;;10.61;25.58;98131.03;8383867;28;20415;-66
2022/04/03 14:42:58;;;;;;;2.23;2.00;;;;;;;11.77;24.86;98130.22;8394250;28;20231;-66
2022/04/03 14:47:05;;;;;;;2.87;1.80;;;;;;;12.16;23.29;98123.25;8393535;28;20239;-66
2022/04/03 14:51:11;;;;;;;1.83;1.40;;;;;;;12.06;22.80;98120.25;8393307;28;20239;-67
2022/04/03 14:55:14;;;;;;;1.40;1.30;;;;;;;12.13;22.93;98119.88;8397238;28;20234;-67
2022/04/03 14:59:17;;;;;;;2.37;1.60;;;;;;;11.09;25.27;98119.47;8397955;28;20227;-66
2022/04/03 15:03:21;;;;;;;1.83;1.43;;;;;;;10.94;25.41;98118.38;8395472;28;20407;-66
2022/04/03 15:07:24;;;;;;;3.20;2.00;;;;;;;10.67;26.32;98126.41;8405955;28;20288;-66
2022/04/03 15:11:27;;;;;;;3.97;2.40;;;;;;;10.88;25.32;98121.25;8395668;28;20235;-66
2022/04/03 15:15:30;;;;;;;2.13;1.77;;;;;;;10.36;26.70;98121.69;8380402;28;20228;-66
2022/04/03 15:19:35;;;;;;;2.30;1.60;;;;;;;10.52;25.48;98132.25;8380385;28;20227;-66
2022/04/03 15:23:39;;;;;;;2.10;1.80;;;;;;;10.46;25.89;98125.56;8380217;28;20231;-66
2022/04/03 15:27:49;;;;;;;2.80;1.67;;;;;;;10.44;26.12;98126.53;8383146;28;20476;-66
2022/04/03 15:31:54;;;;;;;17.57;14.63;;;;;;;10.42;27.40;98126.59;8413311;28;20234;-66
2022/04/03 15:35:59;;;;;;;5.07;4.10;;;;;;;10.53;26.32;98128.75;8413255;28;20234;-66
2022/04/03 15:40:02;;;;;;;3.80;2.53;;;;;;;10.73;26.20;98123.56;8412966;28;20230;-66
2022/04/03 15:44:06;;;;;;;4.70;3.87;;;;;;;10.54;25.56;98130.44;8385108;28;20239;-66
2022/04/03 15:48:09;;;;;;;3.93;2.93;;;;;;;10.43;27.11;98136.03;8379976;28;20238;-66
2022/04/03 15:52:13;;;;;;;2.87;2.63;;;;;;;10.36;26.46;98134.63;8379401;28;20235;-66
2022/04/03 15:56:19;;;;;;;2.90;2.67;;;;;;;10.15;26.39;98136.31;8380412;28;20238;-65
2022/04/03 16:00:23;;;;;;;2.60;2.30;;;;;;;9.98;26.94;98131.78;8386583;28;20235;-67
2022/04/03 16:04:25;;;;;;;1.90;1.67;;;;;;;9.72;26.77;98127.63;8386285;28;20257;-66
2022/04/03 16:08:30;;;;;;;7.70;4.33;;;;;;;9.57;27.45;98135.03;8385919;28;20247;-66
2022/04/03 16:12:33;;;;;;;6.97;4.80;;;;;;;9.81;27.55;98140.22;8386195;28;20413;-66
2022/04/03 16:16:36;;;;;;;3.10;1.80;;;;;;;10.06;26.80;98132.31;8386182;28;20538;-66
2022/04/03 16:20:39;;;;;;;2.53;1.70;;;;;;;9.82;27.05;98138.44;8385586;28;20550;-66
2022/04/03 16:24:44;;;;;;;2.73;2.13;;;;;;;9.85;26.69;98143.53;8385569;28;20442;-66
2022/04/03 16:28:48;;;;;;;3.37;1.90;;;;;;;9.69;27.05;98146.69;8385659;28;20298;-66
2022/04/03 16:32:51;;;;;;;2.43;1.93;;;;;;;9.62;26.71;98141.81;8385266;28;20558;-67
2022/04/03 16:36:56;;;;;;;2.33;1.80;;;;;;;9.69;27.13;98143.25;8384833;28;20238;-66
2022/04/03 16:41:05;;;;;;;4.40;2.60;;;;;;;9.63;27.30;98146.06;8373681;28;20244;-66
2022/04/03 16:45:09;;;;;;;3.50;2.43;;;;;;;9.57;27.48;98149.72;8384384;28;20235;-66
2022/04/03 16:49:12;;;;;;;3.57;3.20;;;;;;;9.59;27.37;98145.34;8384990;28;20233;-66
2022/04/03 16:53:15;;;;;;;4.03;3.10;;;;;;;9.50;29.03;98154.28;8404634;28;20239;-67
2022/04/03 16:57:20;;;;;;;2.80;2.30;;;;;;;9.53;28.37;98154.16;8386607;28;20251;-67
2022/04/03 17:01:23;;;;;;;2.77;1.90;;;;;;;9.52;28.05;98155.06;8387391;28;20224;-69
2022/04/03 17:05:27;;;;;;;2.30;1.90;;;;;;;9.36;28.53;98153.94;8378683;28;20231;-68
2022/04/03 17:09:29;;;;;;;2.73;1.90;;;;;;;9.09;29.48;98146.28;8383047;28;20523;-68
2022/04/03 17:13:34;;;;;;;2.53;1.93;;;;;;;8.82;28.97;98157.59;8384126;28;20288;-68
2022/04/03 17:17:36;;;;;;;3.17;2.07;;;;;;;9.07;29.47;98148.09;8383941;28;20231;-68
2022/04/03 17:21:39;;;;;;;3.57;2.40;;;;;;;9.09;29.51;98151.44;8383860;28;20228;-69
2022/04/03 17:25:44;;;;;;;6.00;2.20;;;;;;;9.10;29.46;98148.00;8383796;28;20419;-68
2022/04/03 17:29:48;;;;;;;3.43;1.97;;;;;;;9.03;30.36;98161.19;8391407;28;20231;-68
2022/04/03 17:33:51;;;;;;;3.80;2.30;;;;;;;9.05;30.26;98170.53;8416793;28;20237;-70
2022/04/03 17:37:54;;;;;;;2.87;2.50;;;;;;;9.06;30.28;98161.06;8416528;28;20231;-69
2022/04/03 17:41:57;;;;;;;5.40;3.03;;;;;;;8.97;30.54;98163.06;8416557;28;20692;-68
2022/04/03 17:46:01;;;;;;;6.73;3.73;;;;;;;8.89;31.18;98166.78;8416640;28;20234;-69
2022/04/03 17:50:05;;;;;;;5.43;4.13;;;;;;;8.82;31.48;98168.75;8416612;28;20226;-67
2022/04/03 17:54:08;;;;;;;5.40;3.37;;;;;;;8.68;32.26;98169.22;8416144;28;20241;-68
2022/04/03 17:58:12;;;;;;;3.87;2.37;;;;;;;8.59;32.98;98183.28;8415758;28;20222;-68
2022/04/03 18:02:17;;;;;;;4.20;2.60;;;;;;;8.44;32.70;98180.38;8401133;28;20242;-68
2022/04/03 18:06:20;;;;;;;3.43;2.70;;;;;;;8.41;33.04;98183.84;8382387;28;20235;-68
2022/04/03 18:10:23;;;;;;;4.67;3.20;;;;;;;8.29;33.19;98195.41;8382053;28;20239;-68
2022/04/03 18:14:26;;;;;;;5.10;2.83;;;;;;;8.31;33.18;98190.19;8381895;28;20239;-68
2022/04/03 18:18:30;;;;;;;5.27;4.00;;;;;;;8.30;33.30;98191.94;8386990;28;20239;-68
2022/04/03 18:22:34;;;;;;;4.73;3.03;;;;;;;8.13;33.46;98194.16;8414916;28;20241;-68
2022/04/03 18:26:39;;;;;;;4.33;3.37;;;;;;;8.10;34.05;98199.44;8414878;28;20241;-70
2022/04/03 18:30:42;;;;;;;6.97;3.90;;;;;;;7.86;34.38;98198.44;8389796;28;20334;-70
2022/04/03 18:34:49;;;;;;;4.30;3.90;;;;;;;7.93;34.47;98198.22;8381355;28;20235;-70
2022/04/03 18:38:54;;;;;;;4.80;4.30;;;;;;;7.93;34.26;98199.94;8381475;28;20566;-68
2022/04/03 18:42:59;;;;;;;5.73;4.37;;;;;;;7.86;34.51;98198.44;8381443;28;20250;-70
2022/04/03 18:47:05;;;;;;;6.67;4.37;;;;;;;7.84;34.57;98203.63;8381227;28;20223;-69
2022/04/03 18:51:09;;;;;;;5.67;4.00;;;;;;;7.76;35.38;98197.88;8381473;28;20414;-70
2022/04/03 18:55:12;;;;;;;5.10;3.90;;;;;;;7.68;35.40;98205.81;8380629;28;20235;-69
2022/04/03 18:59:15;;;;;;;3.90;3.50;;;;;;;7.64;35.21;98205.06;8380994;28;20232;-70
2022/04/03 19:03:18;;;;;;;4.80;3.50;;;;;;;7.67;35.26;98209.28;8382894;28;20514;-70
2022/04/03 19:07:25;;;;;;;4.73;3.60;;;;;;;7.66;35.59;98209.34;8380139;28;20564;-70
2022/04/03 19:11:29;;;;;;;4.40;3.20;;;;;;;7.53;36.33;98212.25;8380987;28;20231;-69
2022/04/03 19:15:32;;;;;;;4.30;3.23;;;;;;;7.35;36.28;98213.63;8389867;28;20411;-69
2022/04/03 19:19:35;;;;;;;4.17;3.27;;;;;;;7.49;36.18;98212.41;8396527;28;20227;-69